sensor_id;sensor_type;location;lat;lon;timestamp;temperature;humidity
59961;DHT22;55902;-37.980;-63.602;2022-10-16T00:01:30;16.60;50.90
59961;DHT22;55902;-37.980;-63.602;2022-10-16T00:03:59;16.50;50.50
59961;DHT22;55902;-37.980;-63.602;2022-10-16T00:06:31;16.50;49.70
59961;DHT22;55902;-37.980;-63.602;2022-10-16T00:08:58;16.40;49.60
59961;DHT22;55902;-37.980;-63.602;2022-10-16T00:11:28;16.40;50.00
59961;DHT22;55902;-37.980;-63.602;2022-10-16T00:13:57;16.30;49.60
59961;DHT22;55902;-37.980;-63.602;2022-10-16T00:16:26;16.30;50.30
59961;DHT22;55902;-37.980;-63.602;2022-10-16T00:18:53;16.20;50.70
59961;DHT22;55902;-37.980;-63.602;2022-10-16T00:21:25;16.10;51.60
59961;DHT22;55902;-37.980;-63.602;2022-10-16T00:24:07;16.00;50.60
59961;DHT22;55902;-37.980;-63.602;2022-10-16T00:26:37;15.90;52.00
59961;DHT22;55902;-37.980;-63.602;2022-10-16T00:29:05;15.80;51.40
59961;DHT22;55902;-37.980;-63.602;2022-10-16T00:31:32;15.80;50.90
59961;DHT22;55902;-37.980;-63.602;2022-10-16T00:34:00;15.70;51.00
59961;DHT22;55902;-37.980;-63.602;2022-10-16T00:36:27;15.70;50.40
59961;DHT22;55902;-37.980;-63.602;2022-10-16T00:38:55;15.70;50.80
59961;DHT22;55902;-37.980;-63.602;2022-10-16T00:41:24;15.70;50.50
59961;DHT22;55902;-37.980;-63.602;2022-10-16T00:43:56;15.70;50.20
59961;DHT22;55902;-37.980;-63.602;2022-10-16T00:46:38;15.60;51.60
59961;DHT22;55902;-37.980;-63.602;2022-10-16T00:51:43;15.60;50.40
59961;DHT22;55902;-37.980;-63.602;2022-10-16T00:54:30;15.60;50.40
59961;DHT22;55902;-37.980;-63.602;2022-10-16T00:57:02;15.50;50.30
59961;DHT22;55902;-37.980;-63.602;2022-10-16T00:59:37;15.50;51.70
59961;DHT22;55902;-37.980;-63.602;2022-10-16T01:02:06;15.40;51.10
59961;DHT22;55902;-37.980;-63.602;2022-10-16T01:04:39;15.30;50.90
59961;DHT22;55902;-37.980;-63.602;2022-10-16T01:10:30;15.10;51.60
59961;DHT22;55902;-37.980;-63.602;2022-10-16T01:21:13;14.90;51.80
59961;DHT22;55902;-37.980;-63.602;2022-10-16T01:32:14;14.80;52.60
59961;DHT22;55902;-37.980;-63.602;2022-10-16T01:37:43;14.70;52.90
59961;DHT22;55902;-37.980;-63.602;2022-10-16T01:40:12;14.60;52.50
59961;DHT22;55902;-37.980;-63.602;2022-10-16T01:42:45;14.60;52.00
59961;DHT22;55902;-37.980;-63.602;2022-10-16T01:45:15;14.60;53.00
59961;DHT22;55902;-37.980;-63.602;2022-10-16T01:47:44;14.50;53.00
59961;DHT22;55902;-37.980;-63.602;2022-10-16T01:50:13;14.50;53.40
59961;DHT22;55902;-37.980;-63.602;2022-10-16T01:52:44;14.40;53.50
59961;DHT22;55902;-37.980;-63.602;2022-10-16T01:55:15;14.40;53.90
59961;DHT22;55902;-37.980;-63.602;2022-10-16T01:57:47;14.40;53.30
59961;DHT22;55902;-37.980;-63.602;2022-10-16T02:00:17;14.50;52.90
59961;DHT22;55902;-37.980;-63.602;2022-10-16T02:02:48;14.40;53.20
59961;DHT22;55902;-37.980;-63.602;2022-10-16T02:07:45;14.40;53.10
59961;DHT22;55902;-37.980;-63.602;2022-10-16T02:10:12;14.40;53.10
59961;DHT22;55902;-37.980;-63.602;2022-10-16T02:12:42;14.40;52.80
59961;DHT22;55902;-37.980;-63.602;2022-10-16T02:15:11;14.40;52.10
59961;DHT22;55902;-37.980;-63.602;2022-10-16T02:17:38;14.40;52.40
59961;DHT22;55902;-37.980;-63.602;2022-10-16T02:20:05;14.40;52.60
59961;DHT22;55902;-37.980;-63.602;2022-10-16T02:22:50;14.50;52.20
59961;DHT22;55902;-37.980;-63.602;2022-10-16T02:25:27;14.50;52.40
59961;DHT22;55902;-37.980;-63.602;2022-10-16T02:28:08;14.40;52.60
59961;DHT22;55902;-37.980;-63.602;2022-10-16T02:30:44;14.40;51.90
59961;DHT22;55902;-37.980;-63.602;2022-10-16T02:33:14;14.40;52.10
59961;DHT22;55902;-37.980;-63.602;2022-10-16T02:35:42;14.30;52.00
59961;DHT22;55902;-37.980;-63.602;2022-10-16T02:38:11;14.30;52.30
59961;DHT22;55902;-37.980;-63.602;2022-10-16T02:40:39;14.30;52.10
59961;DHT22;55902;-37.980;-63.602;2022-10-16T02:43:07;14.30;52.80
59961;DHT22;55902;-37.980;-63.602;2022-10-16T02:45:34;14.20;52.60
59961;DHT22;55902;-37.980;-63.602;2022-10-16T02:48:01;14.20;52.30
59961;DHT22;55902;-37.980;-63.602;2022-10-16T02:50:28;14.10;52.80
59961;DHT22;55902;-37.980;-63.602;2022-10-16T02:52:54;14.00;53.10
59961;DHT22;55902;-37.980;-63.602;2022-10-16T02:55:21;14.00;53.10
59961;DHT22;55902;-37.980;-63.602;2022-10-16T02:57:48;14.00;52.50
59961;DHT22;55902;-37.980;-63.602;2022-10-16T03:00:16;14.00;52.00
59961;DHT22;55902;-37.980;-63.602;2022-10-16T03:02:44;13.90;53.50
59961;DHT22;55902;-37.980;-63.602;2022-10-16T03:05:11;13.90;53.00
59961;DHT22;55902;-37.980;-63.602;2022-10-16T03:07:38;13.90;52.40
59961;DHT22;55902;-37.980;-63.602;2022-10-16T03:10:05;13.90;52.40
59961;DHT22;55902;-37.980;-63.602;2022-10-16T03:12:32;13.80;52.30
59961;DHT22;55902;-37.980;-63.602;2022-10-16T03:14:59;13.80;52.70
59961;DHT22;55902;-37.980;-63.602;2022-10-16T03:17:26;13.70;53.00
59961;DHT22;55902;-37.980;-63.602;2022-10-16T03:19:52;13.70;52.60
59961;DHT22;55902;-37.980;-63.602;2022-10-16T03:22:19;13.70;53.10
59961;DHT22;55902;-37.980;-63.602;2022-10-16T03:24:46;13.60;53.10
59961;DHT22;55902;-37.980;-63.602;2022-10-16T03:27:13;13.50;53.10
59961;DHT22;55902;-37.980;-63.602;2022-10-16T03:29:40;13.40;54.60
59961;DHT22;55902;-37.980;-63.602;2022-10-16T03:32:07;13.40;54.50
59961;DHT22;55902;-37.980;-63.602;2022-10-16T03:34:37;13.30;54.10
59961;DHT22;55902;-37.980;-63.602;2022-10-16T03:37:04;13.20;54.30
59961;DHT22;55902;-37.980;-63.602;2022-10-16T03:39:31;13.20;54.30
59961;DHT22;55902;-37.980;-63.602;2022-10-16T03:41:57;13.20;54.30
59961;DHT22;55902;-37.980;-63.602;2022-10-16T03:44:24;13.20;54.40
59961;DHT22;55902;-37.980;-63.602;2022-10-16T03:46:51;13.20;54.70
59961;DHT22;55902;-37.980;-63.602;2022-10-16T03:49:18;13.20;54.40
59961;DHT22;55902;-37.980;-63.602;2022-10-16T03:51:45;13.10;54.60
59961;DHT22;55902;-37.980;-63.602;2022-10-16T03:54:12;13.10;55.20
59961;DHT22;55902;-37.980;-63.602;2022-10-16T03:56:39;13.10;54.90
59961;DHT22;55902;-37.980;-63.602;2022-10-16T03:59:06;13.10;55.50
59961;DHT22;55902;-37.980;-63.602;2022-10-16T04:01:32;13.10;54.60
59961;DHT22;55902;-37.980;-63.602;2022-10-16T04:03:59;13.10;55.00
59961;DHT22;55902;-37.980;-63.602;2022-10-16T04:06:26;13.10;54.60
59961;DHT22;55902;-37.980;-63.602;2022-10-16T04:08:53;13.10;54.90
59961;DHT22;55902;-37.980;-63.602;2022-10-16T04:11:20;13.00;55.20
59961;DHT22;55902;-37.980;-63.602;2022-10-16T04:13:47;13.00;55.60
59961;DHT22;55902;-37.980;-63.602;2022-10-16T04:16:14;13.00;55.30
59961;DHT22;55902;-37.980;-63.602;2022-10-16T04:18:41;13.00;55.30
59961;DHT22;55902;-37.980;-63.602;2022-10-16T04:21:08;13.00;55.50
59961;DHT22;55902;-37.980;-63.602;2022-10-16T04:23:34;13.00;56.00
59961;DHT22;55902;-37.980;-63.602;2022-10-16T04:26:01;13.00;55.30
59961;DHT22;55902;-37.980;-63.602;2022-10-16T04:28:28;13.00;55.70
59961;DHT22;55902;-37.980;-63.602;2022-10-16T04:30:55;13.00;55.50
59961;DHT22;55902;-37.980;-63.602;2022-10-16T04:33:22;12.90;55.80
59961;DHT22;55902;-37.980;-63.602;2022-10-16T04:35:55;12.80;57.30
59961;DHT22;55902;-37.980;-63.602;2022-10-16T04:48:28;12.50;57.50
59961;DHT22;55902;-37.980;-63.602;2022-10-16T04:50:55;12.40;57.60
59961;DHT22;55902;-37.980;-63.602;2022-10-16T04:53:22;12.40;57.30
59961;DHT22;55902;-37.980;-63.602;2022-10-16T04:55:50;12.30;58.50
59961;DHT22;55902;-37.980;-63.602;2022-10-16T04:58:17;12.30;57.80
59961;DHT22;55902;-37.980;-63.602;2022-10-16T05:00:44;12.30;57.90
59961;DHT22;55902;-37.980;-63.602;2022-10-16T05:03:13;12.20;59.10
59961;DHT22;55902;-37.980;-63.602;2022-10-16T05:05:44;12.10;59.80
59961;DHT22;55902;-37.980;-63.602;2022-10-16T05:08:15;12.00;61.00
59961;DHT22;55902;-37.980;-63.602;2022-10-16T05:10:43;12.00;61.50
59961;DHT22;55902;-37.980;-63.602;2022-10-16T05:13:11;11.90;61.70
59961;DHT22;55902;-37.980;-63.602;2022-10-16T05:15:38;11.90;60.60
59961;DHT22;55902;-37.980;-63.602;2022-10-16T05:18:05;11.80;61.70
59961;DHT22;55902;-37.980;-63.602;2022-10-16T05:20:32;11.90;61.30
59961;DHT22;55902;-37.980;-63.602;2022-10-16T05:22:59;11.80;62.00
59961;DHT22;55902;-37.980;-63.602;2022-10-16T05:25:26;11.80;61.80
59961;DHT22;55902;-37.980;-63.602;2022-10-16T05:27:52;11.80;62.60
59961;DHT22;55902;-37.980;-63.602;2022-10-16T05:30:19;11.70;61.90
59961;DHT22;55902;-37.980;-63.602;2022-10-16T05:32:48;11.70;63.00
59961;DHT22;55902;-37.980;-63.602;2022-10-16T05:35:15;11.70;63.40
59961;DHT22;55902;-37.980;-63.602;2022-10-16T05:37:42;11.60;64.00
59961;DHT22;55902;-37.980;-63.602;2022-10-16T05:40:10;11.50;66.00
59961;DHT22;55902;-37.980;-63.602;2022-10-16T05:42:38;11.50;65.10
59961;DHT22;55902;-37.980;-63.602;2022-10-16T05:45:06;11.50;64.70
59961;DHT22;55902;-37.980;-63.602;2022-10-16T05:47:34;11.50;65.40
59961;DHT22;55902;-37.980;-63.602;2022-10-16T05:50:01;11.50;65.30
59961;DHT22;55902;-37.980;-63.602;2022-10-16T05:52:30;11.50;65.50
59961;DHT22;55902;-37.980;-63.602;2022-10-16T05:54:57;11.50;65.20
59961;DHT22;55902;-37.980;-63.602;2022-10-16T05:57:23;11.50;65.70
59961;DHT22;55902;-37.980;-63.602;2022-10-16T05:59:50;11.40;66.80
59961;DHT22;55902;-37.980;-63.602;2022-10-16T06:02:17;11.40;67.70
59961;DHT22;55902;-37.980;-63.602;2022-10-16T06:04:44;11.30;68.80
59961;DHT22;55902;-37.980;-63.602;2022-10-16T06:07:11;11.30;69.30
59961;DHT22;55902;-37.980;-63.602;2022-10-16T06:09:38;11.20;69.50
59961;DHT22;55902;-37.980;-63.602;2022-10-16T06:12:05;11.30;69.10
59961;DHT22;55902;-37.980;-63.602;2022-10-16T06:14:32;11.40;68.80
59961;DHT22;55902;-37.980;-63.602;2022-10-16T06:16:58;11.30;69.80
59961;DHT22;55902;-37.980;-63.602;2022-10-16T06:19:25;11.40;69.80
59961;DHT22;55902;-37.980;-63.602;2022-10-16T06:21:52;11.40;69.30
59961;DHT22;55902;-37.980;-63.602;2022-10-16T06:24:19;11.30;70.80
59961;DHT22;55902;-37.980;-63.602;2022-10-16T06:26:46;11.30;71.60
59961;DHT22;55902;-37.980;-63.602;2022-10-16T06:29:13;11.30;71.90
59961;DHT22;55902;-37.980;-63.602;2022-10-16T06:31:40;11.30;71.30
59961;DHT22;55902;-37.980;-63.602;2022-10-16T06:34:09;11.30;72.50
59961;DHT22;55902;-37.980;-63.602;2022-10-16T06:36:38;11.40;71.80
59961;DHT22;55902;-37.980;-63.602;2022-10-16T06:39:05;11.30;72.80
59961;DHT22;55902;-37.980;-63.602;2022-10-16T06:41:34;11.30;73.80
59961;DHT22;55902;-37.980;-63.602;2022-10-16T06:44:01;11.30;74.10
59961;DHT22;55902;-37.980;-63.602;2022-10-16T06:46:31;11.30;73.20
59961;DHT22;55902;-37.980;-63.602;2022-10-16T06:48:58;11.10;75.30
59961;DHT22;55902;-37.980;-63.602;2022-10-16T06:51:27;11.10;75.00
59961;DHT22;55902;-37.980;-63.602;2022-10-16T06:53:55;11.00;76.50
59961;DHT22;55902;-37.980;-63.602;2022-10-16T06:56:27;10.90;77.40
59961;DHT22;55902;-37.980;-63.602;2022-10-16T06:58:56;10.70;78.30
59961;DHT22;55902;-37.980;-63.602;2022-10-16T07:01:24;10.70;78.60
59961;DHT22;55902;-37.980;-63.602;2022-10-16T07:03:51;10.60;80.60
59961;DHT22;55902;-37.980;-63.602;2022-10-16T07:06:20;10.50;81.30
59961;DHT22;55902;-37.980;-63.602;2022-10-16T07:08:48;10.40;82.00
59961;DHT22;55902;-37.980;-63.602;2022-10-16T07:11:17;10.30;83.40
59961;DHT22;55902;-37.980;-63.602;2022-10-16T07:13:45;10.20;85.00
59961;DHT22;55902;-37.980;-63.602;2022-10-16T07:16:18;10.20;86.00
59961;DHT22;55902;-37.980;-63.602;2022-10-16T07:18:46;10.20;87.10
59961;DHT22;55902;-37.980;-63.602;2022-10-16T07:21:19;10.10;87.40
59961;DHT22;55902;-37.980;-63.602;2022-10-16T07:23:57;10.20;88.90
59961;DHT22;55902;-37.980;-63.602;2022-10-16T07:26:26;10.10;89.10
59961;DHT22;55902;-37.980;-63.602;2022-10-16T07:28:53;10.10;90.90
59961;DHT22;55902;-37.980;-63.602;2022-10-16T07:31:21;10.10;91.40
59961;DHT22;55902;-37.980;-63.602;2022-10-16T07:33:49;10.10;91.70
59961;DHT22;55902;-37.980;-63.602;2022-10-16T07:36:18;10.10;92.10
59961;DHT22;55902;-37.980;-63.602;2022-10-16T07:38:46;10.10;93.20
59961;DHT22;55902;-37.980;-63.602;2022-10-16T07:41:15;10.00;94.30
59961;DHT22;55902;-37.980;-63.602;2022-10-16T07:43:50;10.00;95.20
59961;DHT22;55902;-37.980;-63.602;2022-10-16T07:46:17;10.00;96.40
59961;DHT22;55902;-37.980;-63.602;2022-10-16T07:48:47;10.10;97.00
59961;DHT22;55902;-37.980;-63.602;2022-10-16T07:51:17;10.00;98.00
59961;DHT22;55902;-37.980;-63.602;2022-10-16T07:53:44;10.00;98.40
59961;DHT22;55902;-37.980;-63.602;2022-10-16T07:56:12;10.00;99.60
59961;DHT22;55902;-37.980;-63.602;2022-10-16T07:58:39;9.90;99.90
59961;DHT22;55902;-37.980;-63.602;2022-10-16T08:01:11;9.90;99.90
59961;DHT22;55902;-37.980;-63.602;2022-10-16T08:03:48;9.90;99.90
59961;DHT22;55902;-37.980;-63.602;2022-10-16T08:06:16;9.90;99.90
59961;DHT22;55902;-37.980;-63.602;2022-10-16T08:08:43;9.90;99.90
59961;DHT22;55902;-37.980;-63.602;2022-10-16T08:11:10;9.80;99.90
59961;DHT22;55902;-37.980;-63.602;2022-10-16T08:13:37;9.80;99.90
59961;DHT22;55902;-37.980;-63.602;2022-10-16T08:16:04;9.80;99.90
59961;DHT22;55902;-37.980;-63.602;2022-10-16T08:18:38;9.70;99.90
59961;DHT22;55902;-37.980;-63.602;2022-10-16T08:21:06;9.70;99.90
59961;DHT22;55902;-37.980;-63.602;2022-10-16T08:23:34;9.70;99.90
59961;DHT22;55902;-37.980;-63.602;2022-10-16T08:26:06;9.70;99.90
59961;DHT22;55902;-37.980;-63.602;2022-10-16T08:28:34;9.70;99.90
59961;DHT22;55902;-37.980;-63.602;2022-10-16T08:31:12;9.70;99.90
59961;DHT22;55902;-37.980;-63.602;2022-10-16T08:33:41;9.60;99.90
59961;DHT22;55902;-37.980;-63.602;2022-10-16T08:36:10;9.70;99.90
59961;DHT22;55902;-37.980;-63.602;2022-10-16T08:38:37;9.70;99.90
59961;DHT22;55902;-37.980;-63.602;2022-10-16T08:46:30;9.60;99.90
59961;DHT22;55902;-37.980;-63.602;2022-10-16T08:49:03;9.60;99.90
59961;DHT22;55902;-37.980;-63.602;2022-10-16T08:51:35;9.60;99.90
59961;DHT22;55902;-37.980;-63.602;2022-10-16T08:56:46;9.60;99.90
59961;DHT22;55902;-37.980;-63.602;2022-10-16T08:59:14;9.60;99.90
59961;DHT22;55902;-37.980;-63.602;2022-10-16T09:01:45;9.50;99.90
59961;DHT22;55902;-37.980;-63.602;2022-10-16T09:06:57;9.40;99.90
59961;DHT22;55902;-37.980;-63.602;2022-10-16T09:09:43;9.40;99.90
59961;DHT22;55902;-37.980;-63.602;2022-10-16T09:20:45;9.30;99.90
59961;DHT22;55902;-37.980;-63.602;2022-10-16T09:23:22;9.30;99.90
59961;DHT22;55902;-37.980;-63.602;2022-10-16T09:25:52;9.30;99.90
59961;DHT22;55902;-37.980;-63.602;2022-10-16T09:28:20;9.30;99.90
59961;DHT22;55902;-37.980;-63.602;2022-10-16T09:30:47;9.20;99.90
59961;DHT22;55902;-37.980;-63.602;2022-10-16T09:33:20;9.30;99.90
59961;DHT22;55902;-37.980;-63.602;2022-10-16T09:35:54;9.20;99.90
59961;DHT22;55902;-37.980;-63.602;2022-10-16T09:38:32;9.30;99.90
59961;DHT22;55902;-37.980;-63.602;2022-10-16T09:41:19;9.20;99.90
59961;DHT22;55902;-37.980;-63.602;2022-10-16T09:43:55;9.20;99.90
59961;DHT22;55902;-37.980;-63.602;2022-10-16T09:46:34;9.30;99.90
59961;DHT22;55902;-37.980;-63.602;2022-10-16T09:49:05;9.20;99.90
59961;DHT22;55902;-37.980;-63.602;2022-10-16T09:51:34;9.30;99.90
59961;DHT22;55902;-37.980;-63.602;2022-10-16T09:56:37;9.30;99.90
59961;DHT22;55902;-37.980;-63.602;2022-10-16T09:59:16;9.30;99.90
59961;DHT22;55902;-37.980;-63.602;2022-10-16T10:01:46;9.30;99.90
59961;DHT22;55902;-37.980;-63.602;2022-10-16T10:04:13;9.40;99.90
59961;DHT22;55902;-37.980;-63.602;2022-10-16T10:12:03;9.50;99.90
59961;DHT22;55902;-37.980;-63.602;2022-10-16T10:17:20;9.50;99.90
59961;DHT22;55902;-37.980;-63.602;2022-10-16T10:22:27;9.70;99.90
59961;DHT22;55902;-37.980;-63.602;2022-10-16T10:27:53;9.80;99.90
59961;DHT22;55902;-37.980;-63.602;2022-10-16T10:33:43;10.00;99.90
59961;DHT22;55902;-37.980;-63.602;2022-10-16T10:44:36;10.40;99.90
59961;DHT22;55902;-37.980;-63.602;2022-10-16T10:55:03;10.90;99.90
59961;DHT22;55902;-37.980;-63.602;2022-10-16T11:03:02;11.30;99.90
59961;DHT22;55902;-37.980;-63.602;2022-10-16T11:08:19;11.50;99.90
59961;DHT22;55902;-37.980;-63.602;2022-10-16T11:11:20;11.70;99.90
59961;DHT22;55902;-37.980;-63.602;2022-10-16T11:16:30;12.00;99.90
59961;DHT22;55902;-37.980;-63.602;2022-10-16T11:24:55;12.80;99.90
59961;DHT22;55902;-37.980;-63.602;2022-10-16T11:30:22;13.90;99.90
59961;DHT22;55902;-37.980;-63.602;2022-10-16T11:33:10;14.30;99.90
59961;DHT22;55902;-37.980;-63.602;2022-10-16T11:40:54;15.60;99.90
59961;DHT22;55902;-37.980;-63.602;2022-10-16T11:43:38;15.70;99.90
59961;DHT22;55902;-37.980;-63.602;2022-10-16T11:46:26;15.90;99.90
59961;DHT22;55902;-37.980;-63.602;2022-10-16T11:49:15;16.10;99.90
59961;DHT22;55902;-37.980;-63.602;2022-10-16T11:51:55;16.40;99.90
59961;DHT22;55902;-37.980;-63.602;2022-10-16T11:57:13;17.10;99.90
59961;DHT22;55902;-37.980;-63.602;2022-10-16T12:03:17;17.50;99.90
59961;DHT22;55902;-37.980;-63.602;2022-10-16T12:06:06;17.80;99.90
59961;DHT22;55902;-37.980;-63.602;2022-10-16T12:08:37;18.00;99.90
59961;DHT22;55902;-37.980;-63.602;2022-10-16T12:11:19;18.20;99.90
59961;DHT22;55902;-37.980;-63.602;2022-10-16T12:13:47;18.50;99.90
59961;DHT22;55902;-37.980;-63.602;2022-10-16T12:18:43;19.00;99.90
59961;DHT22;55902;-37.980;-63.602;2022-10-16T12:21:11;19.10;99.90
59961;DHT22;55902;-37.980;-63.602;2022-10-16T12:26:14;19.20;99.90
59961;DHT22;55902;-37.980;-63.602;2022-10-16T12:28:50;19.40;99.70
59961;DHT22;55902;-37.980;-63.602;2022-10-16T12:31:17;19.40;99.10
59961;DHT22;55902;-37.980;-63.602;2022-10-16T12:33:59;19.50;99.40
59961;DHT22;55902;-37.980;-63.602;2022-10-16T12:36:33;19.70;98.60
59961;DHT22;55902;-37.980;-63.602;2022-10-16T12:39:01;20.00;98.30
59961;DHT22;55902;-37.980;-63.602;2022-10-16T12:41:34;20.20;97.90
59961;DHT22;55902;-37.980;-63.602;2022-10-16T12:44:01;20.20;97.50
59961;DHT22;55902;-37.980;-63.602;2022-10-16T12:46:37;20.50;97.00
59961;DHT22;55902;-37.980;-63.602;2022-10-16T12:51:42;21.30;96.00
59961;DHT22;55902;-37.980;-63.602;2022-10-16T13:02:21;22.00;92.20
59961;DHT22;55902;-37.980;-63.602;2022-10-16T13:29:32;24.20;84.90
59961;DHT22;55902;-37.980;-63.602;2022-10-16T13:32:01;24.40;81.60
59961;DHT22;55902;-37.980;-63.602;2022-10-16T13:34:41;24.30;79.70
59961;DHT22;55902;-37.980;-63.602;2022-10-16T13:37:21;24.10;78.70
59961;DHT22;55902;-37.980;-63.602;2022-10-16T13:39:49;24.00;79.10
59961;DHT22;55902;-37.980;-63.602;2022-10-16T13:42:27;24.00;80.50
59961;DHT22;55902;-37.980;-63.602;2022-10-16T13:44:55;24.20;77.50
59961;DHT22;55902;-37.980;-63.602;2022-10-16T13:47:28;24.30;76.10
59961;DHT22;55902;-37.980;-63.602;2022-10-16T13:50:09;24.30;74.20
59961;DHT22;55902;-37.980;-63.602;2022-10-16T13:52:38;24.40;74.60
59961;DHT22;55902;-37.980;-63.602;2022-10-16T13:55:18;24.70;76.60
59961;DHT22;55902;-37.980;-63.602;2022-10-16T13:57:45;24.80;72.30
59961;DHT22;55902;-37.980;-63.602;2022-10-16T14:00:23;24.40;73.10
59961;DHT22;55902;-37.980;-63.602;2022-10-16T14:03:05;24.50;73.80
59961;DHT22;55902;-37.980;-63.602;2022-10-16T14:05:33;24.70;71.30
59961;DHT22;55902;-37.980;-63.602;2022-10-16T14:08:01;24.60;69.20
59961;DHT22;55902;-37.980;-63.602;2022-10-16T14:10:31;24.70;69.40
59961;DHT22;55902;-37.980;-63.602;2022-10-16T14:13:01;24.60;68.10
59961;DHT22;55902;-37.980;-63.602;2022-10-16T14:15:32;24.40;68.20
59961;DHT22;55902;-37.980;-63.602;2022-10-16T14:18:01;24.50;69.50
59961;DHT22;55902;-37.980;-63.602;2022-10-16T14:20:32;24.50;68.70
59961;DHT22;55902;-37.980;-63.602;2022-10-16T14:23:16;24.60;67.70
59961;DHT22;55902;-37.980;-63.602;2022-10-16T14:25:45;25.00;68.70
59961;DHT22;55902;-37.980;-63.602;2022-10-16T14:28:17;25.00;64.20
59961;DHT22;55902;-37.980;-63.602;2022-10-16T14:30:58;24.80;62.90
59961;DHT22;55902;-37.980;-63.602;2022-10-16T14:33:32;24.70;62.50
59961;DHT22;55902;-37.980;-63.602;2022-10-16T14:36:33;25.10;62.60
59961;DHT22;55902;-37.980;-63.602;2022-10-16T14:39:05;25.30;61.20
59961;DHT22;55902;-37.980;-63.602;2022-10-16T14:41:40;25.40;59.50
59961;DHT22;55902;-37.980;-63.602;2022-10-16T14:44:11;25.90;60.80
59961;DHT22;55902;-37.980;-63.602;2022-10-16T14:46:40;26.30;60.30
59961;DHT22;55902;-37.980;-63.602;2022-10-16T14:51:39;25.60;60.30
59961;DHT22;55902;-37.980;-63.602;2022-10-16T14:54:11;25.60;61.90
59961;DHT22;55902;-37.980;-63.602;2022-10-16T14:56:57;25.80;62.00
59961;DHT22;55902;-37.980;-63.602;2022-10-16T14:59:40;25.90;60.30
59961;DHT22;55902;-37.980;-63.602;2022-10-16T15:02:34;25.90;59.20
59961;DHT22;55902;-37.980;-63.602;2022-10-16T15:07:40;26.00;58.90
59961;DHT22;55902;-37.980;-63.602;2022-10-16T15:10:09;26.00;59.20
59961;DHT22;55902;-37.980;-63.602;2022-10-16T15:12:40;26.40;59.50
59961;DHT22;55902;-37.980;-63.602;2022-10-16T15:15:38;26.60;56.40
59961;DHT22;55902;-37.980;-63.602;2022-10-16T15:18:06;26.60;56.40
59961;DHT22;55902;-37.980;-63.602;2022-10-16T15:20:37;26.20;56.40
59961;DHT22;55902;-37.980;-63.602;2022-10-16T15:23:09;26.50;55.70
59961;DHT22;55902;-37.980;-63.602;2022-10-16T15:25:44;26.90;55.70
59961;DHT22;55902;-37.980;-63.602;2022-10-16T15:28:12;27.40;54.70
59961;DHT22;55902;-37.980;-63.602;2022-10-16T15:30:39;27.50;54.10
59961;DHT22;55902;-37.980;-63.602;2022-10-16T15:33:15;27.40;52.90
59961;DHT22;55902;-37.980;-63.602;2022-10-16T15:35:43;27.10;53.30
59961;DHT22;55902;-37.980;-63.602;2022-10-16T15:38:13;26.90;52.80
59961;DHT22;55902;-37.980;-63.602;2022-10-16T15:40:41;27.30;54.20
59961;DHT22;55902;-37.980;-63.602;2022-10-16T15:43:08;27.50;53.80
59961;DHT22;55902;-37.980;-63.602;2022-10-16T15:45:35;27.80;52.00
59961;DHT22;55902;-37.980;-63.602;2022-10-16T15:48:02;27.20;51.10
59961;DHT22;55902;-37.980;-63.602;2022-10-16T15:50:30;27.50;52.80
59961;DHT22;55902;-37.980;-63.602;2022-10-16T15:52:58;27.90;50.30
59961;DHT22;55902;-37.980;-63.602;2022-10-16T15:55:25;28.20;48.00
59961;DHT22;55902;-37.980;-63.602;2022-10-16T15:57:51;28.10;45.40
59961;DHT22;55902;-37.980;-63.602;2022-10-16T16:00:19;28.50;46.90
59961;DHT22;55902;-37.980;-63.602;2022-10-16T16:02:55;28.30;46.90
59961;DHT22;55902;-37.980;-63.602;2022-10-16T16:05:22;28.60;46.50
59961;DHT22;55902;-37.980;-63.602;2022-10-16T16:07:49;28.90;46.30
59961;DHT22;55902;-37.980;-63.602;2022-10-16T16:10:17;29.50;45.90
59961;DHT22;55902;-37.980;-63.602;2022-10-16T16:12:47;29.60;45.40
59961;DHT22;55902;-37.980;-63.602;2022-10-16T16:15:19;29.60;46.50
59961;DHT22;55902;-37.980;-63.602;2022-10-16T16:17:46;29.70;44.70
59961;DHT22;55902;-37.980;-63.602;2022-10-16T16:20:13;30.20;44.30
59961;DHT22;55902;-37.980;-63.602;2022-10-16T16:22:40;30.80;45.60
59961;DHT22;55902;-37.980;-63.602;2022-10-16T16:25:08;30.30;41.90
59961;DHT22;55902;-37.980;-63.602;2022-10-16T16:27:35;29.50;43.10
59961;DHT22;55902;-37.980;-63.602;2022-10-16T16:30:06;29.20;43.10
59961;DHT22;55902;-37.980;-63.602;2022-10-16T16:32:34;29.10;43.70
59961;DHT22;55902;-37.980;-63.602;2022-10-16T16:35:02;29.00;44.30
59961;DHT22;55902;-37.980;-63.602;2022-10-16T16:37:30;29.10;43.20
59961;DHT22;55902;-37.980;-63.602;2022-10-16T16:39:57;29.10;43.00
59961;DHT22;55902;-37.980;-63.602;2022-10-16T16:42:28;29.10;43.00
59961;DHT22;55902;-37.980;-63.602;2022-10-16T16:44:55;28.70;44.40
59961;DHT22;55902;-37.980;-63.602;2022-10-16T16:47:22;28.50;43.80
59961;DHT22;55902;-37.980;-63.602;2022-10-16T16:49:49;28.80;42.50
59961;DHT22;55902;-37.980;-63.602;2022-10-16T16:52:17;29.10;42.70
59961;DHT22;55902;-37.980;-63.602;2022-10-16T16:54:44;29.20;41.80
59961;DHT22;55902;-37.980;-63.602;2022-10-16T16:57:19;29.00;41.20
59961;DHT22;55902;-37.980;-63.602;2022-10-16T16:59:46;28.90;43.10
59961;DHT22;55902;-37.980;-63.602;2022-10-16T17:02:13;29.40;42.60
59961;DHT22;55902;-37.980;-63.602;2022-10-16T17:04:40;29.60;41.50
59961;DHT22;55902;-37.980;-63.602;2022-10-16T17:07:07;29.90;41.20
59961;DHT22;55902;-37.980;-63.602;2022-10-16T17:09:34;29.90;40.50
59961;DHT22;55902;-37.980;-63.602;2022-10-16T17:12:01;30.00;40.40
59961;DHT22;55902;-37.980;-63.602;2022-10-16T17:14:28;30.20;39.10
59961;DHT22;55902;-37.980;-63.602;2022-10-16T17:16:55;30.20;40.00
59961;DHT22;55902;-37.980;-63.602;2022-10-16T17:19:22;30.20;37.90
59961;DHT22;55902;-37.980;-63.602;2022-10-16T17:21:50;30.20;38.40
59961;DHT22;55902;-37.980;-63.602;2022-10-16T17:24:20;30.20;37.70
59961;DHT22;55902;-37.980;-63.602;2022-10-16T17:26:48;30.70;38.40
59961;DHT22;55902;-37.980;-63.602;2022-10-16T17:29:17;31.00;35.40
59961;DHT22;55902;-37.980;-63.602;2022-10-16T17:31:45;31.00;35.80
59961;DHT22;55902;-37.980;-63.602;2022-10-16T17:34:15;31.10;35.70
59961;DHT22;55902;-37.980;-63.602;2022-10-16T17:36:42;31.20;34.90
59961;DHT22;55902;-37.980;-63.602;2022-10-16T17:39:11;31.00;33.40
59961;DHT22;55902;-37.980;-63.602;2022-10-16T17:41:39;30.90;33.50
59961;DHT22;55902;-37.980;-63.602;2022-10-16T17:44:06;30.90;32.60
59961;DHT22;55902;-37.980;-63.602;2022-10-16T17:46:34;30.80;32.40
59961;DHT22;55902;-37.980;-63.602;2022-10-16T17:49:01;30.70;32.40
59961;DHT22;55902;-37.980;-63.602;2022-10-16T17:51:30;30.20;30.90
59961;DHT22;55902;-37.980;-63.602;2022-10-16T17:53:59;30.10;32.10
59961;DHT22;55902;-37.980;-63.602;2022-10-16T17:56:27;30.10;32.60
59961;DHT22;55902;-37.980;-63.602;2022-10-16T17:58:56;30.80;31.70